Time,TemperatureF,DewpointF,PressureIn,WindDirection,WindDirectionDegrees,WindSpeedMPH,WindSpeedGustMPH,Humidity,HourlyPrecipIn,Conditions,Clouds,dailyrainin,SolarRadiationWatts/m^2,SoftwareType,DateUTC
2013-04-09 00:03:00,62.0,40.0,-100.00,NNW,332,11.0,20.0,45,0.00,,,0.00,0.000000,,2013-04-09 04:03:00,
2013-04-09 00:13:00,62.0,40.0,-100.00,NNW,332,11.0,20.0,45,0.00,,,0.00,0.000000,,2013-04-09 04:13:00,
2013-04-09 00:43:00,62.0,42.0,-100.00,NNW,334,11.0,30.0,48,0.00,,,0.00,0.000000,,2013-04-09 04:43:00,
2013-04-09 00:53:00,62.0,42.0,-100.00,NNW,334,11.0,30.0,48,0.00,,,0.00,0.000000,,2013-04-09 04:53:00,
2013-04-09 01:02:00,62.0,42.0,-100.00,NNW,334,11.0,30.0,48,0.00,,,0.00,0.000000,,2013-04-09 05:02:00,
2013-04-09 01:12:00,62.0,42.0,-100.00,NNW,334,11.0,30.0,48,0.00,,,0.00,0.000000,,2013-04-09 05:12:00,
2013-04-09 01:32:00,60.0,45.0,-100.00,NNW,348,10.0,26.0,58,0.00,,,0.00,0.000000,,2013-04-09 05:32:00,
2013-04-09 01:43:00,60.0,45.0,-100.00,NNW,348,10.0,26.0,58,0.00,,,0.00,0.000000,,2013-04-09 05:43:00,
2013-04-09 01:52:00,60.0,45.0,-100.00,NNW,348,10.0,26.0,58,0.00,,,0.00,0.000000,,2013-04-09 05:52:00,
2013-04-09 02:02:00,60.0,45.0,-100.00,NNW,348,10.0,26.0,58,0.00,,,0.00,0.000000,,2013-04-09 06:02:00,
2013-04-09 02:12:00,60.0,45.0,-100.00,NNW,348,10.0,26.0,58,0.00,,,0.00,0.000000,,2013-04-09 06:12:00,
2013-04-09 02:32:00,60.0,44.0,-100.00,North,1,11.0,19.0,56,0.00,,,0.00,0.000000,,2013-04-09 06:32:00,
2013-04-09 02:42:00,60.0,44.0,-100.00,North,1,11.0,19.0,56,0.00,,,0.00,0.000000,,2013-04-09 06:42:00,
2013-04-09 02:52:00,60.0,44.0,-100.00,North,1,11.0,19.0,56,0.00,,,0.00,0.000000,,2013-04-09 06:52:00,
2013-04-09 03:02:00,60.0,44.0,-100.00,North,1,11.0,19.0,56,0.00,,,0.00,0.000000,,2013-04-09 07:02:00,
2013-04-09 03:13:00,60.0,44.0,-100.00,North,1,11.0,19.0,56,0.00,,,0.00,0.000000,,2013-04-09 07:13:00,
2013-04-09 03:42:00,54.0,48.0,-100.00,North,6,11.0,30.0,80,0.02,,,0.02,0.000000,,2013-04-09 07:42:00,
2013-04-09 03:53:00,54.0,48.0,-100.00,North,6,11.0,30.0,80,0.02,,,0.02,0.000000,,2013-04-09 07:53:00,
2013-04-09 04:03:00,54.0,48.0,-100.00,North,6,11.0,30.0,80,0.02,,,0.02,0.000000,,2013-04-09 08:03:00,
2013-04-09 04:13:00,54.0,48.0,-100.00,North,6,11.0,30.0,80,0.02,,,0.02,0.000000,,2013-04-09 08:13:00,
2013-04-09 04:42:00,54.0,48.0,-100.00,North,4,12.0,23.0,79,0.00,,,0.02,0.000000,,2013-04-09 08:42:00,
2013-04-09 04:52:00,54.0,48.0,-100.00,North,4,12.0,23.0,79,0.00,,,0.02,0.000000,,2013-04-09 08:52:00,
2013-04-09 05:02:00,54.0,48.0,-100.00,North,4,12.0,23.0,79,0.00,,,0.02,0.000000,,2013-04-09 09:02:00,
2013-04-09 05:12:00,54.0,48.0,-100.00,North,4,12.0,23.0,79,0.00,,,0.02,0.000000,,2013-04-09 09:12:00,
2013-04-09 05:44:00,54.0,49.0,-100.00,NNE,13,14.0,25.0,84,0.00,,,0.02,0.000000,,2013-04-09 09:44:00,
2013-04-09 05:53:00,54.0,49.0,-100.00,NNE,13,14.0,25.0,84,0.00,,,0.02,0.000000,,2013-04-09 09:53:00,
2013-04-09 06:04:00,54.0,49.0,-100.00,NNE,13,14.0,25.0,84,0.00,,,0.02,0.000000,,2013-04-09 10:04:00,
2013-04-09 06:13:00,54.0,49.0,-100.00,NNE,13,14.0,25.0,84,0.00,,,0.02,0.000000,,2013-04-09 10:13:00,
2013-04-09 06:43:00,54.0,48.0,-100.00,North,5,15.0,27.0,79,0.00,,,0.02,0.000000,,2013-04-09 10:43:00,
2013-04-09 06:54:00,54.0,48.0,-100.00,North,5,15.0,27.0,79,0.00,,,0.02,0.000000,,2013-04-09 10:54:00,
2013-04-09 07:02:00,54.0,48.0,-100.00,North,5,15.0,27.0,79,0.00,,,0.02,0.000000,,2013-04-09 11:02:00,
2013-04-09 07:12:00,54.0,48.0,-100.00,North,5,15.0,27.0,79,0.00,,,0.02,0.000000,,2013-04-09 11:12:00,
2013-04-09 07:32:00,53.0,44.0,-100.00,North,11,16.0,29.0,71,0.00,,,0.02,11.000000,,2013-04-09 11:32:00,
2013-04-09 07:43:00,53.0,44.0,-100.00,North,11,16.0,29.0,71,0.00,,,0.02,11.000000,,2013-04-09 11:43:00,
2013-04-09 07:52:00,53.0,44.0,-100.00,North,11,16.0,29.0,71,0.00,,,0.02,11.000000,,2013-04-09 11:52:00,
2013-04-09 08:02:00,53.0,44.0,-100.00,North,11,16.0,29.0,71,0.00,,,0.02,11.000000,,2013-04-09 12:02:00,
2013-04-09 08:12:00,53.0,44.0,-100.00,North,11,16.0,29.0,71,0.00,,,0.02,11.000000,,2013-04-09 12:12:00,
2013-04-09 08:43:00,54.0,43.0,-100.00,NNE,23,15.0,26.0,66,0.00,,,0.02,149.000000,,2013-04-09 12:43:00,
2013-04-09 08:53:00,54.0,43.0,-100.00,NNE,23,15.0,26.0,66,0.00,,,0.02,149.000000,,2013-04-09 12:53:00,
2013-04-09 09:03:00,54.0,43.0,-100.00,NNE,23,15.0,26.0,66,0.00,,,0.02,149.000000,,2013-04-09 13:03:00,
2013-04-09 09:13:00,54.0,43.0,-100.00,NNE,23,15.0,26.0,66,0.00,,,0.02,149.000000,,2013-04-09 13:13:00,
2013-04-09 09:43:00,55.0,41.0,-100.00,NNE,23,10.0,26.0,58,0.00,,,0.02,324.000000,,2013-04-09 13:43:00,
2013-04-09 09:53:00,55.0,41.0,-100.00,NNE,23,10.0,26.0,58,0.00,,,0.02,324.000000,,2013-04-09 13:53:00,
2013-04-09 10:03:00,55.0,41.0,-100.00,NNE,23,10.0,26.0,58,0.00,,,0.02,324.000000,,2013-04-09 14:03:00,
2013-04-09 10:12:00,55.0,41.0,-100.00,NNE,23,10.0,26.0,58,0.00,,,0.02,324.000000,,2013-04-09 14:12:00,
2013-04-09 10:43:00,59.0,41.0,-100.00,NE,36,8.0,18.0,51,0.00,,,0.02,517.000000,,2013-04-09 14:43:00,
2013-04-09 10:53:00,59.0,41.0,-100.00,NE,36,8.0,18.0,51,0.00,,,0.02,517.000000,,2013-04-09 14:53:00,
2013-04-09 11:02:00,59.0,41.0,-100.00,NE,36,8.0,18.0,51,0.00,,,0.02,517.000000,,2013-04-09 15:02:00,
2013-04-09 11:13:00,59.0,41.0,-100.00,NE,36,8.0,18.0,51,0.00,,,0.02,517.000000,,2013-04-09 15:13:00,
2013-04-09 11:44:00,63.0,40.0,-100.00,NNE,18,5.0,15.0,43,0.00,,,0.02,671.000000,,2013-04-09 15:44:00,
2013-04-09 11:54:00,63.0,40.0,-100.00,NNE,18,5.0,15.0,43,0.00,,,0.02,671.000000,,2013-04-09 15:54:00,
2013-04-09 12:03:00,63.0,40.0,-100.00,NNE,18,5.0,15.0,43,0.00,,,0.02,671.000000,,2013-04-09 16:03:00,
2013-04-09 12:13:00,63.0,40.0,-100.00,NNE,18,5.0,15.0,43,0.00,,,0.02,671.000000,,2013-04-09 16:13:00,
2013-04-09 12:43:00,66.0,40.0,-100.00,North,7,6.0,14.0,38,0.00,,,-99.99,703.000000,,2013-04-09 16:43:00,
2013-04-09 12:54:00,66.0,40.0,-100.00,North,7,6.0,14.0,38,0.00,,,-99.99,703.000000,,2013-04-09 16:54:00,
2013-04-09 13:03:00,66.0,40.0,-100.00,North,7,6.0,14.0,38,0.00,,,-99.99,703.000000,,2013-04-09 17:03:00,
2013-04-09 13:13:00,66.0,40.0,-100.00,North,7,6.0,14.0,38,0.00,,,-99.99,703.000000,,2013-04-09 17:13:00,
2013-04-09 13:33:00,69.0,41.0,-100.00,North,1,7.0,18.0,36,0.00,,,0.02,815.000000,,2013-04-09 17:33:00,
2013-04-09 13:43:00,69.0,41.0,-100.00,North,1,7.0,18.0,36,0.00,,,0.02,815.000000,,2013-04-09 17:43:00,
2013-04-09 13:55:00,69.0,41.0,-100.00,North,1,7.0,18.0,36,0.00,,,0.02,815.000000,,2013-04-09 17:55:00,
2013-04-09 14:03:00,69.0,41.0,-100.00,North,1,7.0,18.0,36,0.00,,,0.02,815.000000,,2013-04-09 18:03:00,
2013-04-09 14:13:00,69.0,41.0,-100.00,North,1,7.0,18.0,36,0.00,,,0.02,815.000000,,2013-04-09 18:13:00,
2013-04-09 14:43:00,73.0,41.0,-100.00,North,357,7.0,16.0,32,0.00,,,0.02,792.000000,,2013-04-09 18:43:00,
2013-04-09 14:53:00,73.0,41.0,-100.00,North,357,7.0,16.0,32,0.00,,,0.02,792.000000,,2013-04-09 18:53:00,
2013-04-09 15:03:00,73.0,41.0,-100.00,North,357,7.0,16.0,32,0.00,,,0.02,792.000000,,2013-04-09 19:03:00,
2013-04-09 15:12:00,73.0,41.0,-100.00,North,357,7.0,16.0,32,0.00,,,0.02,792.000000,,2013-04-09 19:12:00,
2013-04-09 15:53:00,74.0,39.0,-100.00,NNW,347,9.0,16.0,28,0.00,,,0.02,720.000000,,2013-04-09 19:53:00,
2013-04-09 16:03:00,74.0,39.0,-100.00,NNW,347,9.0,16.0,28,0.00,,,0.02,720.000000,,2013-04-09 20:03:00,
2013-04-09 16:12:00,74.0,39.0,-100.00,NNW,347,9.0,16.0,28,0.00,,,0.02,720.000000,,2013-04-09 20:12:00,
2013-04-09 16:44:00,75.0,41.0,-100.00,NW,324,11.0,20.0,29,0.00,,,0.02,588.000000,,2013-04-09 20:44:00,
2013-04-09 16:53:00,75.0,41.0,-100.00,NW,324,11.0,20.0,29,0.00,,,0.02,588.000000,,2013-04-09 20:53:00,
2013-04-09 17:03:00,75.0,41.0,-100.00,NW,324,11.0,20.0,29,0.00,,,0.02,588.000000,,2013-04-09 21:03:00,
2013-04-09 17:14:00,75.0,41.0,-100.00,NW,324,11.0,20.0,29,0.00,,,0.02,588.000000,,2013-04-09 21:14:00,
2013-04-09 17:53:00,73.0,43.0,-100.00,NNW,347,9.0,21.0,34,0.00,,,0.02,343.000000,,2013-04-09 21:53:00,
2013-04-09 18:03:00,73.0,43.0,-100.00,NNW,347,9.0,21.0,34,0.00,,,0.02,343.000000,,2013-04-09 22:03:00,
2013-04-09 18:13:00,73.0,43.0,-100.00,NNW,347,9.0,21.0,34,0.00,,,0.02,343.000000,,2013-04-09 22:13:00,
2013-04-09 18:43:00,71.0,45.0,-100.00,NNW,346,8.0,18.0,39,0.00,,,0.02,170.000000,,2013-04-09 22:43:00,
2013-04-09 18:54:00,71.0,45.0,-100.00,NNW,346,8.0,18.0,39,0.00,,,0.02,170.000000,,2013-04-09 22:54:00,
2013-04-09 19:03:00,71.0,45.0,-100.00,NNW,346,8.0,18.0,39,0.00,,,0.02,170.000000,,2013-04-09 23:03:00,
2013-04-09 19:13:00,71.0,45.0,-100.00,NNW,346,8.0,18.0,39,0.00,,,0.02,170.000000,,2013-04-09 23:13:00,
2013-04-09 19:43:00,69.0,45.0,-100.00,NNW,342,5.0,14.0,42,0.00,,,0.02,45.000000,,2013-04-09 23:43:00,
2013-04-09 19:53:00,69.0,45.0,-100.00,NNW,342,5.0,14.0,42,0.00,,,0.02,45.000000,,2013-04-09 23:53:00,
2013-04-09 20:03:00,69.0,45.0,-100.00,NNW,342,5.0,14.0,42,0.00,,,0.02,45.000000,,2013-04-10 00:03:00,
2013-04-09 20:13:00,69.0,45.0,-100.00,NNW,342,5.0,14.0,42,0.00,,,0.02,45.000000,,2013-04-10 00:13:00,
2013-04-09 20:43:00,67.0,46.0,-100.00,WNW,287,6.0,9.0,47,0.00,,,0.02,2.000000,,2013-04-10 00:43:00,
2013-04-09 20:53:00,67.0,46.0,-100.00,WNW,287,6.0,9.0,47,0.00,,,0.02,2.000000,,2013-04-10 00:53:00,
2013-04-09 21:02:00,67.0,46.0,-100.00,WNW,287,6.0,9.0,47,0.00,,,0.02,2.000000,,2013-04-10 01:02:00,
2013-04-09 21:12:00,67.0,46.0,-100.00,WNW,287,6.0,9.0,47,0.00,,,0.02,2.000000,,2013-04-10 01:12:00,
2013-04-09 21:33:00,66.0,46.0,-100.00,WNW,283,9.0,14.0,49,0.00,,,0.02,0.000000,,2013-04-10 01:33:00,
2013-04-09 21:43:00,66.0,46.0,-100.00,WNW,283,9.0,14.0,49,0.00,,,0.02,0.000000,,2013-04-10 01:43:00,
2013-04-09 21:53:00,66.0,46.0,-100.00,WNW,283,9.0,14.0,49,0.00,,,0.02,0.000000,,2013-04-10 01:53:00,
2013-04-09 22:03:00,66.0,46.0,-100.00,WNW,283,9.0,14.0,49,0.00,,,0.02,0.000000,,2013-04-10 02:03:00,
2013-04-09 22:13:00,66.0,46.0,-100.00,WNW,283,9.0,14.0,49,0.00,,,0.02,0.000000,,2013-04-10 02:13:00,
2013-04-09 22:33:00,66.0,47.0,-100.00,WNW,291,10.0,14.0,51,0.00,,,0.02,0.000000,,2013-04-10 02:33:00,
2013-04-09 22:43:00,66.0,47.0,-100.00,WNW,291,10.0,14.0,51,0.00,,,0.02,0.000000,,2013-04-10 02:43:00,
2013-04-09 22:53:00,66.0,47.0,-100.00,WNW,291,10.0,14.0,51,0.00,,,0.02,0.000000,,2013-04-10 02:53:00,
2013-04-09 23:03:00,66.0,47.0,-100.00,WNW,291,10.0,14.0,51,0.00,,,0.02,0.000000,,2013-04-10 03:03:00,
2013-04-09 23:12:00,66.0,47.0,-100.00,WNW,291,10.0,14.0,51,0.00,,,0.02,0.000000,,2013-04-10 03:12:00,
2013-04-09 23:43:00,66.0,47.0,-100.00,NW,312,10.0,17.0,51,0.00,,,0.02,0.000000,,2013-04-10 03:43:00,
2013-04-09 23:53:00,66.0,47.0,-100.00,NW,312,10.0,17.0,51,0.00,,,0.02,0.000000,,2013-04-10 03:53:00,